Terminal Aerodrome Forecast
Issued by NWS

Current Version | Previous Version | Text Only | Print | Product List | Glossary On
Versions: 1 2 3 4 5 6 7 8 9 10 11 12 13 14 15
813 FTUS41 KBTV 302339 TAFMPV TAF KMPV 302339Z 0100/0124 00000KT P6SM SKC FM010800 00000KT 1SM BR BKN250 FM011100 VRB02KT P6SM SKC FM011600 16006KT P6SM SCT250 FM011900 18009G16KT P6SM FEW050 SCT080 FM012200 18007KT 3SM +SHRA BR BKN028 OVC050=

USA.gov is the U.S. government's official web portal to all federal, state and local government web resources and services.